createdAt,value
2017-10-10T00:01:26.810Z,27.13
2017-10-10T00:03:54.641Z,26.17
2017-10-10T00:06:22.462Z,28.17
2017-10-10T00:08:50.273Z,28.27
2017-10-10T00:11:18.091Z,29.00
2017-10-10T00:13:45.918Z,29.90
2017-10-10T00:16:13.752Z,31.23
2017-10-10T00:18:41.570Z,31.47
2017-10-10T00:21:09.396Z,30.87
2017-10-10T00:23:37.229Z,27.70
2017-10-10T00:26:05.052Z,25.53
2017-10-10T00:28:32.874Z,24.80
2017-10-10T00:31:00.709Z,21.97
2017-10-10T00:33:28.540Z,24.10
2017-10-10T00:35:56.379Z,25.57
2017-10-10T00:38:24.208Z,24.60
2017-10-10T00:40:52.032Z,23.50
2017-10-10T00:43:19.841Z,23.00
2017-10-10T00:45:47.680Z,26.27
2017-10-10T00:48:15.516Z,23.30
2017-10-10T00:50:43.341Z,25.20
2017-10-10T00:53:11.173Z,22.33
2017-10-10T00:55:38.994Z,24.17
2017-10-10T00:58:06.835Z,16.67
2017-10-10T01:00:34.657Z,16.70
2017-10-10T01:03:02.506Z,19.23
2017-10-10T01:05:30.330Z,18.70
2017-10-10T01:07:58.156Z,21.03
2017-10-10T01:10:26.016Z,19.60
2017-10-10T01:12:53.846Z,17.03
2017-10-10T01:15:21.673Z,16.40
2017-10-10T01:17:49.500Z,15.90
2017-10-10T01:20:17.351Z,13.57
2017-10-10T01:22:45.167Z,14.10
2017-10-10T01:25:12.993Z,13.93
2017-10-10T01:27:40.814Z,13.67
2017-10-10T01:30:08.666Z,14.70
2017-10-10T01:32:36.476Z,13.60
2017-10-10T01:35:04.297Z,14.60
2017-10-10T01:37:32.106Z,14.93
2017-10-10T01:39:59.928Z,14.43
2017-10-10T01:42:27.752Z,13.43
2017-10-10T01:44:55.604Z,13.20
2017-10-10T01:47:23.457Z,11.67
2017-10-10T01:49:51.301Z,12.37
2017-10-10T01:52:19.122Z,12.70
2017-10-10T01:54:46.936Z,12.23
2017-10-10T01:57:14.761Z,13.50
2017-10-10T01:59:42.577Z,13.30
2017-10-10T02:02:10.408Z,13.00
2017-10-10T02:04:38.241Z,11.27
2017-10-10T02:07:06.074Z,11.33
2017-10-10T02:09:33.909Z,12.27
2017-10-10T02:12:01.750Z,10.77
2017-10-10T02:14:29.566Z,12.43
2017-10-10T02:16:57.417Z,13.70
2017-10-10T02:19:25.252Z,14.33
2017-10-10T02:21:53.069Z,15.23
2017-10-10T02:24:20.873Z,18.13
2017-10-10T02:26:48.702Z,17.57
2017-10-10T02:29:16.533Z,18.80
2017-10-10T02:31:44.356Z,18.13
2017-10-10T02:34:12.191Z,18.10
2017-10-10T02:36:40.026Z,17.97
2017-10-10T02:39:07.838Z,17.60
2017-10-10T02:41:35.681Z,20.10
2017-10-10T02:44:03.498Z,21.47
2017-10-10T02:46:31.340Z,23.27
2017-10-10T02:48:59.168Z,23.33
2017-10-10T02:51:33.934Z,24.50
2017-10-10T02:54:01.760Z,28.83
2017-10-10T02:56:29.577Z,27.60
2017-10-10T02:58:57.405Z,29.50
2017-10-10T03:01:25.229Z,27.50
2017-10-10T03:03:53.067Z,30.83
2017-10-10T03:06:20.913Z,27.93
2017-10-10T03:08:48.750Z,35.00
2017-10-10T03:11:16.577Z,32.03
2017-10-10T03:13:44.409Z,32.10
2017-10-10T03:16:12.230Z,31.47
2017-10-10T03:18:40.056Z,31.77
2017-10-10T03:21:07.871Z,33.10
2017-10-10T03:23:35.699Z,33.60
2017-10-10T03:26:03.509Z,34.37
2017-10-10T03:28:31.340Z,35.03
2017-10-10T03:30:59.161Z,34.57
2017-10-10T03:33:26.973Z,33.97
2017-10-10T03:35:54.775Z,39.40
2017-10-10T03:38:22.598Z,39.50
2017-10-10T03:40:50.423Z,37.37
2017-10-10T03:43:18.243Z,37.30
2017-10-10T03:45:46.040Z,39.70
2017-10-10T03:48:13.845Z,39.27
2017-10-10T03:50:41.654Z,41.00
2017-10-10T03:53:09.490Z,41.93
2017-10-10T03:55:37.323Z,42.60
2017-10-10T03:58:05.133Z,39.97
2017-10-10T04:00:32.956Z,38.77
2017-10-10T04:03:00.757Z,43.17
2017-10-10T04:05:28.590Z,37.27
2017-10-10T04:07:56.420Z,38.03
2017-10-10T04:10:24.223Z,40.53
2017-10-10T04:12:52.033Z,45.60
2017-10-10T04:15:19.850Z,38.53
2017-10-10T04:17:47.665Z,39.43
2017-10-10T04:20:15.481Z,40.17
2017-10-10T04:22:43.300Z,37.80
2017-10-10T04:25:11.134Z,40.30
2017-10-10T04:27:38.957Z,38.37
2017-10-10T04:30:06.797Z,38.20
2017-10-10T04:32:34.667Z,36.27
2017-10-10T04:35:02.509Z,39.30
2017-10-10T04:37:30.338Z,37.10
2017-10-10T04:39:58.143Z,36.30
2017-10-10T04:42:25.990Z,39.10
2017-10-10T04:44:53.821Z,40.80
2017-10-10T04:47:21.644Z,38.23
2017-10-10T04:49:49.473Z,38.67
2017-10-10T04:52:17.293Z,40.00
2017-10-10T04:54:45.117Z,39.50
2017-10-10T04:57:12.950Z,39.67
2017-10-10T04:59:40.772Z,36.13
2017-10-10T05:02:08.590Z,32.77
2017-10-10T05:04:36.408Z,37.93
2017-10-10T05:07:04.286Z,35.00
2017-10-10T05:09:32.090Z,41.43
2017-10-10T05:11:59.906Z,36.90
2017-10-10T05:14:27.728Z,40.60
2017-10-10T05:16:55.597Z,37.40
2017-10-10T05:19:23.485Z,28.97
2017-10-10T05:21:51.337Z,41.10
2017-10-10T05:24:19.164Z,40.03
2017-10-10T05:26:47.002Z,39.93
2017-10-10T05:29:14.837Z,39.83
2017-10-10T05:31:42.684Z,39.23
2017-10-10T05:34:10.603Z,35.50
2017-10-10T05:36:38.471Z,38.60
2017-10-10T05:39:06.301Z,37.83
2017-10-10T05:41:34.105Z,35.40
2017-10-10T05:44:01.933Z,39.73
2017-10-10T05:46:29.782Z,40.20
2017-10-10T05:48:57.738Z,37.37
2017-10-10T05:51:25.545Z,36.43
2017-10-10T05:53:53.364Z,39.80
2017-10-10T05:56:21.181Z,37.73
2017-10-10T05:58:49.132Z,39.27
2017-10-10T06:01:17.017Z,39.70
2017-10-10T06:03:45.008Z,34.10
2017-10-10T06:06:12.962Z,38.57
2017-10-10T06:08:41.009Z,37.23
2017-10-10T06:11:08.940Z,36.40
2017-10-10T06:13:36.793Z,37.97
2017-10-10T06:16:04.712Z,35.53
2017-10-10T06:18:32.552Z,34.07
2017-10-10T06:21:00.376Z,35.43
2017-10-10T06:23:28.204Z,35.47
2017-10-10T06:25:56.068Z,38.70
2017-10-10T06:28:23.897Z,35.07
2017-10-10T06:30:51.724Z,35.13
2017-10-10T06:33:19.570Z,37.90
2017-10-10T06:35:47.400Z,37.43
2017-10-10T06:38:15.228Z,35.70
2017-10-10T06:40:43.052Z,37.10
2017-10-10T06:43:10.877Z,35.37
2017-10-10T06:45:38.709Z,34.53
2017-10-10T06:48:06.528Z,34.47
2017-10-10T06:50:34.354Z,38.93
2017-10-10T06:53:02.183Z,38.67
2017-10-10T06:55:30.034Z,33.77
2017-10-10T06:57:57.844Z,34.93
2017-10-10T07:00:25.699Z,35.73
2017-10-10T07:02:53.557Z,35.33
2017-10-10T07:05:21.390Z,36.33
2017-10-10T07:07:49.216Z,34.07
2017-10-10T07:10:17.058Z,33.70
2017-10-10T07:12:44.891Z,36.60
2017-10-10T07:15:12.727Z,33.63
2017-10-10T07:17:40.570Z,35.53
2017-10-10T07:20:08.400Z,36.77
2017-10-10T07:22:36.226Z,35.40
2017-10-10T07:25:04.045Z,36.60
2017-10-10T07:27:31.921Z,33.50
2017-10-10T07:29:59.744Z,34.97
2017-10-10T07:32:27.575Z,34.67
2017-10-10T07:34:55.402Z,32.70
2017-10-10T07:37:23.265Z,35.53
2017-10-10T07:39:51.078Z,33.33
2017-10-10T07:42:18.913Z,34.83
2017-10-10T07:44:46.717Z,36.33
2017-10-10T07:47:14.548Z,29.60
2017-10-10T07:49:42.393Z,34.83
2017-10-10T07:52:10.257Z,35.37
2017-10-10T07:54:38.081Z,34.07
2017-10-10T07:57:05.920Z,34.77
2017-10-10T07:59:33.757Z,33.57
2017-10-10T08:02:01.573Z,35.80
2017-10-10T08:04:29.393Z,34.57
2017-10-10T08:06:57.208Z,34.70
2017-10-10T08:09:25.029Z,30.60
2017-10-10T08:11:52.865Z,32.97
2017-10-10T08:14:20.700Z,33.07
2017-10-10T08:16:48.502Z,31.27
2017-10-10T08:19:16.328Z,26.13
2017-10-10T08:21:44.137Z,30.03
2017-10-10T08:24:11.965Z,29.43
2017-10-10T08:26:39.764Z,24.80
2017-10-10T08:29:07.581Z,29.90
2017-10-10T08:31:35.476Z,32.37
2017-10-10T08:34:03.304Z,31.67
2017-10-10T08:36:31.119Z,32.70
2017-10-10T08:38:58.945Z,31.93
2017-10-10T08:41:26.744Z,31.50
2017-10-10T08:43:54.574Z,34.03
2017-10-10T08:46:22.400Z,33.57
2017-10-10T08:48:50.248Z,36.13
2017-10-10T08:51:18.073Z,34.70
2017-10-10T08:53:45.881Z,34.70
2017-10-10T08:56:13.702Z,32.80
2017-10-10T08:58:41.517Z,33.17
2017-10-10T09:01:09.334Z,38.70
2017-10-10T09:03:37.161Z,33.50
2017-10-10T09:06:04.980Z,36.47
2017-10-10T09:08:32.806Z,35.80
2017-10-10T09:11:00.648Z,39.27
2017-10-10T09:13:28.461Z,35.70
2017-10-10T09:15:56.373Z,34.40
2017-10-10T09:18:24.198Z,35.27
2017-10-10T09:20:52.018Z,37.20
2017-10-10T09:23:19.845Z,36.07
2017-10-10T09:25:47.673Z,37.57
2017-10-10T09:28:15.537Z,38.17
2017-10-10T09:30:43.401Z,34.00
2017-10-10T09:33:11.233Z,30.83
2017-10-10T09:35:39.062Z,35.53
2017-10-10T09:38:06.897Z,35.03
2017-10-10T09:40:34.749Z,39.20
2017-10-10T09:43:02.572Z,33.80
2017-10-10T09:45:30.402Z,36.27
2017-10-10T09:47:58.213Z,36.80
2017-10-10T09:50:26.036Z,33.20
2017-10-10T09:52:53.868Z,35.40
2017-10-10T09:55:21.689Z,32.20
2017-10-10T09:57:49.506Z,36.00
2017-10-10T10:00:17.333Z,36.40
2017-10-10T10:02:45.184Z,36.20
2017-10-10T10:05:13.022Z,34.77
2017-10-10T10:07:40.861Z,36.50
2017-10-10T10:10:08.689Z,36.10
2017-10-10T10:12:36.505Z,33.87
2017-10-10T10:15:04.322Z,39.83
2017-10-10T10:17:32.142Z,35.20
2017-10-10T10:22:34.592Z,37.00
2017-10-10T10:25:02.425Z,35.20
2017-10-10T10:27:30.265Z,34.27
2017-10-10T10:29:58.108Z,36.87
2017-10-10T10:32:25.964Z,30.83
2017-10-10T10:34:53.824Z,32.37
2017-10-10T10:37:21.689Z,30.90
2017-10-10T10:39:49.504Z,37.87
2017-10-10T10:42:17.344Z,34.00
2017-10-10T10:44:45.170Z,30.80
2017-10-10T10:47:13.014Z,32.77
2017-10-10T10:49:40.825Z,32.93
2017-10-10T10:52:08.645Z,31.53
2017-10-10T10:54:36.490Z,32.90
2017-10-10T10:57:04.292Z,36.23
2017-10-10T10:59:32.122Z,31.00
2017-10-10T11:01:59.952Z,31.30
2017-10-10T11:04:27.778Z,24.67
2017-10-10T11:06:55.606Z,26.00
2017-10-10T11:09:23.444Z,24.13
2017-10-10T11:11:51.282Z,27.13
2017-10-10T11:14:19.102Z,25.17
2017-10-10T11:16:46.937Z,28.10
2017-10-10T11:19:14.781Z,27.93
2017-10-10T11:21:42.588Z,27.87
2017-10-10T11:24:10.445Z,25.57
2017-10-10T11:26:38.260Z,26.43
2017-10-10T11:29:06.096Z,22.23
2017-10-10T11:31:33.951Z,25.17
2017-10-10T11:34:01.778Z,23.43
2017-10-10T11:36:29.620Z,24.13
2017-10-10T11:38:57.445Z,20.60
2017-10-10T11:41:25.264Z,22.17
2017-10-10T11:43:53.085Z,23.40
2017-10-10T11:46:20.910Z,23.60
2017-10-10T11:48:48.757Z,22.73
2017-10-10T11:51:16.592Z,21.80
2017-10-10T11:53:44.401Z,19.20
2017-10-10T11:56:12.260Z,22.90
2017-10-10T11:58:40.071Z,21.33
2017-10-10T12:01:07.904Z,22.10
2017-10-10T12:03:35.709Z,23.23
2017-10-10T12:06:03.536Z,21.70
2017-10-10T12:08:31.357Z,22.50
2017-10-10T12:10:59.173Z,20.47
2017-10-10T12:13:26.998Z,20.83
2017-10-10T12:15:54.812Z,22.87
2017-10-10T12:18:22.637Z,19.77
2017-10-10T12:20:50.488Z,19.70
2017-10-10T12:23:18.305Z,20.53
2017-10-10T12:25:46.132Z,19.37
2017-10-10T12:28:14.006Z,20.57
2017-10-10T12:30:41.841Z,17.07
2017-10-10T12:33:09.650Z,17.93
2017-10-10T12:35:37.476Z,18.60
2017-10-10T12:38:05.313Z,17.13
2017-10-10T12:40:33.133Z,16.63
2017-10-10T12:43:00.937Z,17.43
2017-10-10T12:45:28.764Z,14.77
2017-10-10T12:47:56.608Z,15.03
2017-10-10T12:50:24.443Z,13.30
2017-10-10T12:52:52.285Z,13.00
2017-10-10T12:55:20.130Z,12.67
2017-10-10T12:57:47.941Z,12.60
2017-10-10T13:00:15.764Z,14.00
2017-10-10T13:02:43.605Z,12.70
2017-10-10T13:05:11.418Z,14.20
2017-10-10T13:07:39.253Z,14.37
2017-10-10T13:10:07.070Z,16.40
2017-10-10T13:12:34.900Z,15.53
2017-10-10T13:15:02.718Z,12.70
2017-10-10T13:17:30.553Z,12.60
2017-10-10T13:19:58.377Z,13.53
2017-10-10T13:22:26.203Z,10.70
2017-10-10T13:24:54.114Z,13.77
2017-10-10T13:27:21.925Z,16.00
2017-10-10T13:29:49.782Z,12.73
2017-10-10T13:32:17.605Z,15.90
2017-10-10T13:34:45.422Z,14.30
2017-10-10T13:37:13.253Z,14.97
2017-10-10T13:39:41.073Z,12.80
2017-10-10T13:42:08.886Z,16.87
2017-10-10T13:44:36.710Z,18.17
2017-10-10T13:47:04.547Z,14.83
2017-10-10T13:49:32.384Z,18.10
2017-10-10T13:52:00.231Z,19.07
2017-10-10T13:54:28.061Z,17.23
2017-10-10T13:56:55.897Z,18.23
2017-10-10T13:59:23.733Z,22.70
2017-10-10T14:01:51.555Z,21.20
2017-10-10T14:04:19.375Z,20.83
2017-10-10T14:06:47.180Z,22.27
2017-10-10T14:09:15.001Z,23.17
2017-10-10T14:11:42.825Z,24.83
2017-10-10T14:14:10.637Z,24.57
2017-10-10T14:16:38.448Z,25.10
2017-10-10T14:19:06.293Z,25.50
2017-10-10T14:21:34.138Z,24.63
2017-10-10T14:24:01.969Z,26.90
2017-10-10T14:26:29.785Z,25.90
2017-10-10T14:28:57.602Z,20.07
2017-10-10T14:31:25.423Z,27.53
2017-10-10T14:33:53.279Z,25.43
2017-10-10T14:36:21.099Z,27.30
2017-10-10T14:38:48.926Z,29.77
2017-10-10T14:41:16.740Z,20.47
2017-10-10T14:43:44.582Z,19.27
2017-10-10T14:46:12.412Z,15.97
2017-10-10T14:48:40.214Z,11.87
2017-10-10T14:51:08.057Z,17.47
2017-10-10T14:53:35.868Z,14.43
2017-10-10T14:56:03.690Z,16.20
2017-10-10T14:58:31.529Z,12.40
2017-10-10T15:00:59.363Z,19.13
2017-10-10T15:03:27.207Z,16.83
2017-10-10T15:05:55.050Z,21.83
2017-10-10T15:08:22.892Z,17.47
2017-10-10T15:10:50.723Z,21.77
2017-10-10T15:13:18.540Z,23.23
2017-10-10T15:15:46.398Z,20.70
2017-10-10T15:18:14.233Z,20.83
2017-10-10T15:20:42.078Z,21.90
2017-10-10T15:23:09.926Z,24.53
2017-10-10T15:25:37.744Z,39.03
2017-10-10T15:28:05.586Z,20.30
2017-10-10T15:30:33.421Z,27.70
2017-10-10T15:33:01.290Z,28.23
2017-10-10T15:35:29.113Z,18.40
2017-10-10T15:37:56.920Z,25.70
2017-10-10T15:40:24.743Z,24.97
2017-10-10T15:42:52.570Z,26.43
2017-10-10T15:45:20.412Z,28.10
2017-10-10T15:47:48.262Z,24.20
2017-10-10T15:50:16.072Z,25.70
2017-10-10T15:52:43.901Z,26.50
2017-10-10T15:55:11.723Z,27.10
2017-10-10T15:57:39.558Z,28.47
2017-10-10T16:00:07.373Z,27.43
2017-10-10T16:02:35.204Z,31.27
2017-10-10T16:05:03.029Z,31.73
2017-10-10T16:07:30.868Z,30.10
2017-10-10T16:09:58.698Z,30.00
2017-10-10T16:12:26.517Z,29.80
2017-10-10T16:14:54.322Z,31.57
2017-10-10T16:17:22.177Z,34.70
2017-10-10T16:19:49.973Z,34.70
2017-10-10T16:22:17.789Z,35.60
2017-10-10T16:24:45.597Z,33.23
2017-10-10T16:27:13.397Z,35.73
2017-10-10T16:29:41.231Z,37.13
2017-10-10T16:32:09.054Z,34.77
2017-10-10T16:34:36.896Z,28.87
2017-10-10T16:37:04.735Z,29.87
2017-10-10T16:39:32.562Z,38.40
2017-10-10T16:42:00.420Z,32.33
2017-10-10T16:44:28.252Z,39.50
2017-10-10T16:46:56.069Z,35.97
2017-10-10T16:49:23.881Z,38.37
2017-10-10T16:51:51.712Z,37.27
2017-10-10T16:54:19.561Z,41.70
2017-10-10T16:56:47.398Z,46.23
2017-10-10T16:59:15.230Z,40.20
2017-10-10T17:01:43.054Z,42.47
2017-10-10T17:04:10.876Z,45.80
2017-10-10T17:06:38.685Z,43.57
2017-10-10T17:09:06.496Z,43.73
2017-10-10T17:11:34.316Z,43.97
2017-10-10T17:14:02.133Z,41.13
2017-10-10T17:16:29.952Z,42.80
2017-10-10T17:18:57.772Z,37.67
2017-10-10T17:21:25.586Z,41.87
2017-10-10T17:23:53.391Z,32.60
2017-10-10T17:26:21.217Z,43.40
2017-10-10T17:28:49.028Z,35.60
2017-10-10T17:31:16.848Z,39.37
2017-10-10T17:33:44.682Z,44.47
2017-10-10T17:36:12.535Z,44.50
2017-10-10T17:38:40.352Z,36.37
2017-10-10T17:41:08.170Z,36.60
2017-10-10T17:43:35.996Z,40.03
2017-10-10T17:46:03.835Z,43.00
2017-10-10T17:48:31.678Z,41.93
2017-10-10T17:50:59.482Z,43.97
2017-10-10T17:53:27.313Z,39.30
2017-10-10T17:55:55.116Z,27.10
2017-10-10T17:58:22.956Z,38.60
2017-10-10T18:00:50.802Z,34.87
2017-10-10T18:03:18.640Z,35.60
2017-10-10T18:05:46.445Z,34.90
2017-10-10T18:08:14.299Z,37.77
2017-10-10T18:10:42.117Z,32.40
2017-10-10T18:13:09.944Z,39.70
2017-10-10T18:15:37.761Z,37.13
2017-10-10T18:18:05.570Z,34.53
2017-10-10T18:20:33.392Z,35.67
2017-10-10T18:23:01.201Z,36.97
2017-10-10T18:25:29.034Z,39.90
2017-10-10T18:27:56.856Z,35.70
2017-10-10T18:30:24.684Z,34.57
2017-10-10T18:32:52.484Z,36.77
2017-10-10T18:35:20.295Z,37.57
2017-10-10T18:37:48.120Z,36.50
2017-10-10T18:40:15.948Z,34.90
2017-10-10T18:42:43.769Z,30.67
2017-10-10T18:45:11.597Z,28.80
2017-10-10T18:47:39.432Z,32.83
2017-10-10T18:50:07.233Z,32.10
2017-10-10T18:52:35.041Z,34.20
2017-10-10T18:55:02.865Z,29.07
2017-10-10T18:57:30.673Z,30.60
2017-10-10T18:59:58.503Z,29.90
2017-10-10T19:02:26.317Z,28.03
2017-10-10T19:04:54.128Z,30.00
2017-10-10T19:07:21.949Z,30.67
2017-10-10T19:09:49.796Z,28.90
2017-10-10T19:12:17.610Z,31.70
2017-10-10T19:14:52.517Z,32.43
2017-10-10T19:17:20.333Z,31.90
2017-10-10T19:19:48.145Z,27.97
2017-10-10T19:22:15.953Z,26.50
2017-10-10T19:24:43.781Z,29.27
2017-10-10T19:27:11.585Z,32.13
2017-10-10T19:29:39.433Z,31.00
2017-10-10T19:32:07.274Z,28.53
2017-10-10T19:34:35.093Z,27.77
2017-10-10T19:37:02.924Z,23.17
2017-10-10T19:39:30.732Z,27.23
2017-10-10T19:41:58.566Z,27.17
2017-10-10T19:44:26.392Z,23.40
2017-10-10T19:47:01.290Z,24.30
2017-10-10T19:49:29.104Z,16.87
2017-10-10T19:51:56.925Z,22.70
2017-10-10T19:54:24.776Z,25.37
2017-10-10T19:56:52.602Z,24.10
2017-10-10T19:59:20.414Z,24.17
2017-10-10T20:01:48.233Z,23.30
2017-10-10T20:04:16.061Z,24.83
2017-10-10T20:06:43.883Z,20.60
2017-10-10T20:09:11.709Z,16.53
2017-10-10T20:11:39.539Z,23.47
2017-10-10T20:14:07.369Z,17.57
2017-10-10T20:16:35.205Z,19.07
2017-10-10T20:19:03.022Z,16.50
2017-10-10T20:21:30.841Z,16.70
2017-10-10T20:23:58.652Z,22.27
2017-10-10T20:26:26.473Z,23.23
2017-10-10T20:28:54.382Z,23.63
2017-10-10T20:31:22.245Z,20.00
2017-10-10T20:33:50.142Z,22.30
2017-10-10T20:36:17.990Z,20.73
2017-10-10T20:38:46.605Z,19.23
2017-10-10T20:41:14.440Z,22.27
2017-10-10T20:43:42.270Z,21.03
2017-10-10T20:46:10.091Z,21.90
2017-10-10T20:48:37.917Z,23.00
2017-10-10T20:51:05.748Z,24.00
2017-10-10T20:53:33.576Z,21.67
2017-10-10T20:56:01.393Z,21.87
2017-10-10T20:58:29.239Z,20.90
2017-10-10T21:00:57.053Z,21.07
2017-10-10T21:03:24.870Z,21.80
2017-10-10T21:05:52.831Z,21.97
2017-10-10T21:08:20.725Z,22.00
2017-10-10T21:10:48.563Z,22.60
2017-10-10T21:13:16.490Z,21.53
2017-10-10T21:15:44.376Z,20.53
2017-10-10T21:18:12.352Z,20.63
2017-10-10T21:20:40.288Z,18.77
2017-10-10T21:23:08.130Z,20.73
2017-10-10T21:25:35.946Z,20.93
2017-10-10T21:28:03.769Z,20.80
2017-10-10T21:30:31.682Z,21.43
2017-10-10T21:32:59.604Z,18.10
2017-10-10T21:35:27.414Z,19.90
2017-10-10T21:37:55.244Z,21.50
2017-10-10T21:40:23.073Z,22.87
2017-10-10T21:42:50.939Z,21.50
2017-10-10T21:45:18.833Z,23.33
2017-10-10T21:47:46.650Z,17.20
2017-10-10T21:50:14.464Z,24.07
2017-10-10T21:52:43.074Z,25.63
2017-10-10T21:55:10.920Z,23.47
2017-10-10T21:57:38.745Z,22.63
2017-10-10T22:00:06.570Z,23.93
2017-10-10T22:02:34.348Z,25.07
2017-10-10T22:05:02.185Z,23.70
2017-10-10T22:07:30.056Z,25.83
2017-10-10T22:09:57.893Z,21.10
2017-10-10T22:12:25.727Z,26.33
2017-10-10T22:14:53.615Z,21.70
2017-10-10T22:17:21.464Z,25.60
2017-10-10T22:19:49.333Z,24.93
2017-10-10T22:22:17.403Z,25.90
2017-10-10T22:24:45.233Z,26.77
2017-10-10T22:27:13.053Z,28.40
2017-10-10T22:29:40.856Z,27.93
2017-10-10T22:32:08.710Z,27.10
2017-10-10T22:34:36.528Z,27.13
2017-10-10T22:37:04.388Z,27.40
2017-10-10T22:39:32.216Z,27.90
2017-10-10T22:42:00.041Z,25.53
2017-10-10T22:44:27.846Z,26.37
2017-10-10T22:46:55.676Z,25.80
2017-10-10T22:49:23.484Z,25.10
2017-10-10T22:51:51.305Z,23.47
2017-10-10T22:54:19.112Z,19.20
2017-10-10T22:56:46.937Z,20.87
2017-10-10T22:59:14.796Z,19.10
2017-10-10T23:01:42.613Z,20.33
2017-10-10T23:04:10.441Z,12.43
2017-10-10T23:06:38.284Z,20.13
2017-10-10T23:09:06.097Z,21.27
2017-10-10T23:11:33.914Z,21.33
2017-10-10T23:14:01.734Z,22.93
2017-10-10T23:16:29.566Z,23.00
2017-10-10T23:18:57.397Z,22.50
2017-10-10T23:21:25.221Z,19.90
2017-10-10T23:23:53.057Z,26.00
2017-10-10T23:26:20.872Z,24.50
2017-10-10T23:28:48.691Z,25.53
2017-10-10T23:31:16.611Z,21.50
2017-10-10T23:33:44.432Z,23.70
2017-10-10T23:36:12.252Z,21.77
2017-10-10T23:38:40.109Z,22.70
2017-10-10T23:41:07.933Z,22.87
2017-10-10T23:43:35.741Z,24.17
2017-10-10T23:46:03.556Z,22.97
2017-10-10T23:48:31.479Z,24.77
2017-10-10T23:50:59.288Z,23.93
2017-10-10T23:53:27.112Z,22.23
2017-10-10T23:55:54.920Z,24.50
2017-10-10T23:58:22.800Z,19.33
